Aérodrome :
LOGIN :

S'inscrire | Disclaimer

   EN    FR    IT 

 










Légende :    VFR   VFR Marginal   IFR   IFR Intensif   IFR Très Intensif
Visi : 
Plafond : 
>= 8 km
>= 3000ft
5 à 8 km
1000 à 3000 ft
1500m à 5 km
500 à 1000 ft
800 à 1500m
200 à 500 ft
< 800m
< 200 ft
Symboles :   Orages  Brouillard  Fortes neiges  Fortes précipitations  Vent > 20 kt
SIGMETs :   Divers  Orages  Givrage  Turbulence  Onde Orograph.  Cendres Volcan.







- Altitude de l'aérodrome : 117 ft
- Code IATA : NWI
- Voir les cartes d'approche


EGSH - Norwich

DERNIER METAR :
  • 181050Z 24006KT 200V270 6000 FEW005 SCT008 BKN023 17/16 Q1009

METARs EXPIRÉS :
  • 181020Z 24006KT 6000 SCT002 BKN008 17/16 Q1009
  • 180950Z 24006KT 4500 BR SCT005 BKN009 17/16 Q1009
  • 180920Z 22007KT 180V250 2500 -RADZ SCT003 BKN009 17/16 Q1009 TEMPO 6000 SHRA SCT009
  • 180850Z 23009KT 4500 -RADZ SCT005 BKN010 17/16 Q1009
  • 180820Z 21008KT 6000 -RADZ FEW012 BKN022 17/15 Q1008 TEMPO BKN012

TAF AMD TAF EGSH
Valide du 18 à 09h jusqu'au 18 à 18h UTC


180944Z 1809/1818 21005KT 9999 SCT045
BECMG 1809/1812 27010KT
TEMPO 1809/1813 2000 SHRA BKN009
PROB30
TEMPO 1811/1813 +SHRA
ATIS : +44 1603 420 640
Pas de NOTAMs connus pour ce terrain.



MET'MAP, la Météo Aéronautique d'un coup d'oeil ! - Copyright ORBIFLY Décembre 2007 - Disclaimer

ORBIFLY MET'MAP TEAM :

Programmation & Développement : Alexandra Zaïnal
Conception & Développement : Baudouin d'Aumeries
Co-Programmation & Développement : Marc-Olivier Méhu
Soutien technique & logistique : Manuel Goepfert

Contact : metmap@orbifly.com




SOURCES & CREDITS :

   NOAA